sensor_id;sensor_type;location;lat;lon;timestamp;P1;durP1;ratioP1;P2;durP2;ratioP2
44885;SDS011;36669;51.428;21.162;2022-07-17T00:01:03;4.63;;;1.40;;
44885;SDS011;36669;51.428;21.162;2022-07-17T00:03:31;3.00;;;1.05;;
44885;SDS011;36669;51.428;21.162;2022-07-17T00:05:58;5.60;;;1.75;;
44885;SDS011;36669;51.428;21.162;2022-07-17T00:08:26;1.90;;;1.13;;
44885;SDS011;36669;51.428;21.162;2022-07-17T00:10:54;5.93;;;1.85;;
44885;SDS011;36669;51.428;21.162;2022-07-17T00:13:20;3.17;;;1.50;;
44885;SDS011;36669;51.428;21.162;2022-07-17T00:15:47;1.70;;;1.25;;
44885;SDS011;36669;51.428;21.162;2022-07-17T00:18:14;2.97;;;1.20;;
44885;SDS011;36669;51.428;21.162;2022-07-17T00:20:42;6.72;;;1.50;;
44885;SDS011;36669;51.428;21.162;2022-07-17T00:23:09;4.25;;;1.67;;
44885;SDS011;36669;51.428;21.162;2022-07-17T00:25:39;2.47;;;1.25;;
44885;SDS011;36669;51.428;21.162;2022-07-17T00:28:06;5.03;;;1.50;;
44885;SDS011;36669;51.428;21.162;2022-07-17T00:30:33;8.02;;;1.42;;
44885;SDS011;36669;51.428;21.162;2022-07-17T00:33:01;4.50;;;1.50;;
44885;SDS011;36669;51.428;21.162;2022-07-17T00:35:30;2.25;;;1.20;;
44885;SDS011;36669;51.428;21.162;2022-07-17T00:37:58;5.47;;;1.52;;
44885;SDS011;36669;51.428;21.162;2022-07-17T00:40:25;3.60;;;1.58;;
44885;SDS011;36669;51.428;21.162;2022-07-17T00:42:53;6.10;;;1.33;;
44885;SDS011;36669;51.428;21.162;2022-07-17T00:45:20;4.30;;;1.48;;
44885;SDS011;36669;51.428;21.162;2022-07-17T00:47:58;7.90;;;1.45;;
44885;SDS011;36669;51.428;21.162;2022-07-17T00:50:30;4.40;;;1.52;;
44885;SDS011;36669;51.428;21.162;2022-07-17T00:52:58;3.30;;;1.50;;
44885;SDS011;36669;51.428;21.162;2022-07-17T00:55:26;3.08;;;0.90;;
44885;SDS011;36669;51.428;21.162;2022-07-17T00:57:53;1.73;;;1.23;;
44885;SDS011;36669;51.428;21.162;2022-07-17T01:00:27;5.18;;;1.00;;
44885;SDS011;36669;51.428;21.162;2022-07-17T01:02:54;3.03;;;1.80;;
44885;SDS011;36669;51.428;21.162;2022-07-17T01:05:24;3.03;;;1.30;;
44885;SDS011;36669;51.428;21.162;2022-07-17T01:07:52;4.95;;;1.30;;
44885;SDS011;36669;51.428;21.162;2022-07-17T01:10:19;4.18;;;1.40;;
44885;SDS011;36669;51.428;21.162;2022-07-17T01:12:46;1.23;;;0.88;;
44885;SDS011;36669;51.428;21.162;2022-07-17T01:15:14;2.40;;;1.20;;
44885;SDS011;36669;51.428;21.162;2022-07-17T01:17:43;4.68;;;1.70;;
44885;SDS011;36669;51.428;21.162;2022-07-17T01:20:10;4.05;;;1.35;;
44885;SDS011;36669;51.428;21.162;2022-07-17T01:22:42;3.60;;;1.48;;
44885;SDS011;36669;51.428;21.162;2022-07-17T01:25:09;3.45;;;1.60;;
44885;SDS011;36669;51.428;21.162;2022-07-17T01:27:37;1.73;;;1.13;;
44885;SDS011;36669;51.428;21.162;2022-07-17T01:30:05;3.00;;;1.42;;
44885;SDS011;36669;51.428;21.162;2022-07-17T01:32:38;5.43;;;1.90;;
44885;SDS011;36669;51.428;21.162;2022-07-17T01:35:10;5.57;;;1.52;;
44885;SDS011;36669;51.428;21.162;2022-07-17T01:37:39;5.15;;;1.65;;
44885;SDS011;36669;51.428;21.162;2022-07-17T01:40:07;2.70;;;1.35;;
44885;SDS011;36669;51.428;21.162;2022-07-17T01:42:38;8.18;;;1.70;;
44885;SDS011;36669;51.428;21.162;2022-07-17T01:45:12;3.88;;;1.50;;
44885;SDS011;36669;51.428;21.162;2022-07-17T01:47:41;7.28;;;1.63;;
44885;SDS011;36669;51.428;21.162;2022-07-17T01:50:09;3.67;;;1.35;;
44885;SDS011;36669;51.428;21.162;2022-07-17T01:52:39;1.60;;;1.10;;
44885;SDS011;36669;51.428;21.162;2022-07-17T01:55:11;4.05;;;1.80;;
44885;SDS011;36669;51.428;21.162;2022-07-17T01:57:39;5.18;;;1.38;;
44885;SDS011;36669;51.428;21.162;2022-07-17T02:00:17;1.73;;;0.95;;
44885;SDS011;36669;51.428;21.162;2022-07-17T02:02:45;5.25;;;1.13;;
44885;SDS011;36669;51.428;21.162;2022-07-17T02:05:13;3.67;;;1.17;;
44885;SDS011;36669;51.428;21.162;2022-07-17T02:07:40;5.78;;;1.50;;
44885;SDS011;36669;51.428;21.162;2022-07-17T02:10:08;6.40;;;2.00;;
44885;SDS011;36669;51.428;21.162;2022-07-17T02:12:39;3.63;;;1.63;;
44885;SDS011;36669;51.428;21.162;2022-07-17T02:15:06;6.95;;;1.95;;
44885;SDS011;36669;51.428;21.162;2022-07-17T02:17:33;6.10;;;2.08;;
44885;SDS011;36669;51.428;21.162;2022-07-17T02:19:59;4.00;;;1.67;;
44885;SDS011;36669;51.428;21.162;2022-07-17T02:22:27;3.47;;;1.30;;
44885;SDS011;36669;51.428;21.162;2022-07-17T02:24:55;4.70;;;1.42;;
44885;SDS011;36669;51.428;21.162;2022-07-17T02:27:22;4.13;;;1.42;;
44885;SDS011;36669;51.428;21.162;2022-07-17T02:29:50;5.45;;;1.60;;
44885;SDS011;36669;51.428;21.162;2022-07-17T02:32:23;3.80;;;1.50;;
44885;SDS011;36669;51.428;21.162;2022-07-17T02:34:48;7.75;;;1.60;;
44885;SDS011;36669;51.428;21.162;2022-07-17T02:37:17;3.67;;;1.23;;
44885;SDS011;36669;51.428;21.162;2022-07-17T02:39:43;4.32;;;1.60;;
44885;SDS011;36669;51.428;21.162;2022-07-17T02:42:12;5.47;;;1.70;;
44885;SDS011;36669;51.428;21.162;2022-07-17T02:44:40;3.42;;;1.35;;
44885;SDS011;36669;51.428;21.162;2022-07-17T02:47:08;7.60;;;1.83;;
44885;SDS011;36669;51.428;21.162;2022-07-17T02:49:35;4.18;;;1.67;;
44885;SDS011;36669;51.428;21.162;2022-07-17T02:52:02;3.08;;;1.13;;
44885;SDS011;36669;51.428;21.162;2022-07-17T02:54:29;5.78;;;1.85;;
44885;SDS011;36669;51.428;21.162;2022-07-17T02:56:55;4.18;;;1.15;;
44885;SDS011;36669;51.428;21.162;2022-07-17T02:59:22;8.60;;;1.75;;
44885;SDS011;36669;51.428;21.162;2022-07-17T03:01:50;5.07;;;1.50;;
44885;SDS011;36669;51.428;21.162;2022-07-17T03:04:17;5.30;;;1.90;;
44885;SDS011;36669;51.428;21.162;2022-07-17T03:06:45;3.35;;;1.45;;
44885;SDS011;36669;51.428;21.162;2022-07-17T03:09:13;7.10;;;2.10;;
44885;SDS011;36669;51.428;21.162;2022-07-17T03:11:40;7.40;;;1.55;;
44885;SDS011;36669;51.428;21.162;2022-07-17T03:14:05;7.30;;;1.77;;
44885;SDS011;36669;51.428;21.162;2022-07-17T03:16:34;4.65;;;2.20;;
44885;SDS011;36669;51.428;21.162;2022-07-17T03:19:02;3.15;;;1.85;;
44885;SDS011;36669;51.428;21.162;2022-07-17T03:21:28;4.78;;;1.50;;
44885;SDS011;36669;51.428;21.162;2022-07-17T03:23:56;2.00;;;1.17;;
44885;SDS011;36669;51.428;21.162;2022-07-17T03:26:23;6.10;;;1.67;;
44885;SDS011;36669;51.428;21.162;2022-07-17T03:28:51;5.53;;;1.58;;
44885;SDS011;36669;51.428;21.162;2022-07-17T03:31:19;3.53;;;1.60;;
44885;SDS011;36669;51.428;21.162;2022-07-17T03:33:46;4.15;;;1.70;;
44885;SDS011;36669;51.428;21.162;2022-07-17T03:36:13;4.25;;;1.42;;
44885;SDS011;36669;51.428;21.162;2022-07-17T03:38:40;4.20;;;1.85;;
44885;SDS011;36669;51.428;21.162;2022-07-17T03:41:06;6.05;;;1.77;;
44885;SDS011;36669;51.428;21.162;2022-07-17T03:43:34;11.27;;;1.77;;
44885;SDS011;36669;51.428;21.162;2022-07-17T03:46:03;7.18;;;1.63;;
44885;SDS011;36669;51.428;21.162;2022-07-17T03:48:30;2.88;;;1.75;;
44885;SDS011;36669;51.428;21.162;2022-07-17T03:50:57;7.25;;;1.70;;
44885;SDS011;36669;51.428;21.162;2022-07-17T03:53:24;4.15;;;1.70;;
44885;SDS011;36669;51.428;21.162;2022-07-17T03:55:52;3.75;;;1.73;;
44885;SDS011;36669;51.428;21.162;2022-07-17T03:58:20;5.40;;;1.50;;
44885;SDS011;36669;51.428;21.162;2022-07-17T04:00:46;4.32;;;1.70;;
44885;SDS011;36669;51.428;21.162;2022-07-17T04:03:13;10.55;;;2.00;;
44885;SDS011;36669;51.428;21.162;2022-07-17T04:05:40;5.68;;;1.60;;
44885;SDS011;36669;51.428;21.162;2022-07-17T04:08:07;4.20;;;1.35;;
44885;SDS011;36669;51.428;21.162;2022-07-17T04:10:35;7.38;;;2.00;;
44885;SDS011;36669;51.428;21.162;2022-07-17T04:13:02;3.85;;;1.77;;
44885;SDS011;36669;51.428;21.162;2022-07-17T04:15:30;6.68;;;2.20;;
44885;SDS011;36669;51.428;21.162;2022-07-17T04:17:57;5.78;;;1.75;;
44885;SDS011;36669;51.428;21.162;2022-07-17T04:20:24;8.25;;;1.88;;
44885;SDS011;36669;51.428;21.162;2022-07-17T04:22:50;5.22;;;2.33;;
44885;SDS011;36669;51.428;21.162;2022-07-17T04:25:18;6.57;;;2.30;;
44885;SDS011;36669;51.428;21.162;2022-07-17T04:27:51;7.00;;;2.90;;
44885;SDS011;36669;51.428;21.162;2022-07-17T04:30:18;4.00;;;2.15;;
44885;SDS011;36669;51.428;21.162;2022-07-17T04:32:44;4.95;;;2.47;;
44885;SDS011;36669;51.428;21.162;2022-07-17T04:35:11;5.85;;;1.73;;
44885;SDS011;36669;51.428;21.162;2022-07-17T04:37:37;3.55;;;1.80;;
44885;SDS011;36669;51.428;21.162;2022-07-17T04:40:03;8.40;;;2.50;;
44885;SDS011;36669;51.428;21.162;2022-07-17T04:42:31;5.95;;;2.58;;
44885;SDS011;36669;51.428;21.162;2022-07-17T04:44:56;5.07;;;2.50;;
44885;SDS011;36669;51.428;21.162;2022-07-17T04:47:23;4.25;;;2.15;;
44885;SDS011;36669;51.428;21.162;2022-07-17T04:49:53;6.22;;;2.70;;
44885;SDS011;36669;51.428;21.162;2022-07-17T04:52:20;7.55;;;2.78;;
44885;SDS011;36669;51.428;21.162;2022-07-17T04:54:47;5.70;;;2.60;;
44885;SDS011;36669;51.428;21.162;2022-07-17T04:57:14;8.55;;;2.85;;
44885;SDS011;36669;51.428;21.162;2022-07-17T04:59:41;2.90;;;2.17;;
44885;SDS011;36669;51.428;21.162;2022-07-17T05:02:09;6.70;;;2.63;;
44885;SDS011;36669;51.428;21.162;2022-07-17T05:04:35;7.32;;;2.53;;
44885;SDS011;36669;51.428;21.162;2022-07-17T05:07:03;9.25;;;3.45;;
44885;SDS011;36669;51.428;21.162;2022-07-17T05:09:31;9.55;;;2.88;;
44885;SDS011;36669;51.428;21.162;2022-07-17T05:11:58;10.05;;;3.22;;
44885;SDS011;36669;51.428;21.162;2022-07-17T05:14:25;9.48;;;4.05;;
44885;SDS011;36669;51.428;21.162;2022-07-17T05:16:51;9.52;;;3.72;;
44885;SDS011;36669;51.428;21.162;2022-07-17T05:19:20;5.95;;;3.80;;
44885;SDS011;36669;51.428;21.162;2022-07-17T05:21:46;6.13;;;3.80;;
44885;SDS011;36669;51.428;21.162;2022-07-17T05:24:13;5.97;;;3.67;;
44885;SDS011;36669;51.428;21.162;2022-07-17T05:26:41;10.10;;;3.70;;
44885;SDS011;36669;51.428;21.162;2022-07-17T05:29:07;10.25;;;4.18;;
44885;SDS011;36669;51.428;21.162;2022-07-17T05:31:34;7.32;;;4.13;;
44885;SDS011;36669;51.428;21.162;2022-07-17T05:34:00;5.32;;;4.35;;
44885;SDS011;36669;51.428;21.162;2022-07-17T05:36:26;9.25;;;4.88;;
44885;SDS011;36669;51.428;21.162;2022-07-17T05:38:53;10.07;;;4.30;;
44885;SDS011;36669;51.428;21.162;2022-07-17T05:41:20;5.65;;;3.95;;
44885;SDS011;36669;51.428;21.162;2022-07-17T05:43:48;11.43;;;3.75;;
44885;SDS011;36669;51.428;21.162;2022-07-17T05:46:14;7.28;;;4.53;;
44885;SDS011;36669;51.428;21.162;2022-07-17T05:48:42;8.00;;;3.92;;
44885;SDS011;36669;51.428;21.162;2022-07-17T05:51:09;6.35;;;4.03;;
44885;SDS011;36669;51.428;21.162;2022-07-17T05:53:35;11.75;;;3.55;;
44885;SDS011;36669;51.428;21.162;2022-07-17T05:56:05;3.42;;;2.33;;
44885;SDS011;36669;51.428;21.162;2022-07-17T05:58:32;4.95;;;3.45;;
44885;SDS011;36669;51.428;21.162;2022-07-17T06:00:59;8.73;;;4.00;;
44885;SDS011;36669;51.428;21.162;2022-07-17T06:03:26;9.15;;;3.22;;
44885;SDS011;36669;51.428;21.162;2022-07-17T06:05:54;4.43;;;2.45;;
44885;SDS011;36669;51.428;21.162;2022-07-17T06:08:22;6.00;;;2.42;;
44885;SDS011;36669;51.428;21.162;2022-07-17T06:10:49;7.45;;;2.50;;
44885;SDS011;36669;51.428;21.162;2022-07-17T06:13:15;7.90;;;2.00;;
44885;SDS011;36669;51.428;21.162;2022-07-17T06:15:42;5.93;;;2.05;;
44885;SDS011;36669;51.428;21.162;2022-07-17T06:18:10;4.60;;;2.15;;
44885;SDS011;36669;51.428;21.162;2022-07-17T06:20:37;12.48;;;2.28;;
44885;SDS011;36669;51.428;21.162;2022-07-17T06:23:04;6.32;;;2.17;;
44885;SDS011;36669;51.428;21.162;2022-07-17T06:25:31;9.43;;;2.13;;
44885;SDS011;36669;51.428;21.162;2022-07-17T06:27:58;2.80;;;1.45;;
44885;SDS011;36669;51.428;21.162;2022-07-17T06:30:26;6.82;;;1.75;;
44885;SDS011;36669;51.428;21.162;2022-07-17T06:32:54;2.90;;;1.67;;
44885;SDS011;36669;51.428;21.162;2022-07-17T06:35:22;9.20;;;2.15;;
44885;SDS011;36669;51.428;21.162;2022-07-17T06:37:49;3.88;;;1.95;;
44885;SDS011;36669;51.428;21.162;2022-07-17T06:40:15;5.22;;;1.80;;
44885;SDS011;36669;51.428;21.162;2022-07-17T06:42:42;3.50;;;1.90;;
44885;SDS011;36669;51.428;21.162;2022-07-17T06:45:10;6.00;;;2.17;;
44885;SDS011;36669;51.428;21.162;2022-07-17T06:47:38;3.28;;;1.70;;
44885;SDS011;36669;51.428;21.162;2022-07-17T06:50:05;4.38;;;1.27;;
44885;SDS011;36669;51.428;21.162;2022-07-17T06:52:32;4.07;;;1.75;;
44885;SDS011;36669;51.428;21.162;2022-07-17T06:55:00;2.60;;;1.40;;
44885;SDS011;36669;51.428;21.162;2022-07-17T06:57:28;2.88;;;1.45;;
44885;SDS011;36669;51.428;21.162;2022-07-17T06:59:55;2.45;;;1.40;;
44885;SDS011;36669;51.428;21.162;2022-07-17T07:02:23;4.45;;;1.75;;
44885;SDS011;36669;51.428;21.162;2022-07-17T07:04:50;3.40;;;1.27;;
44885;SDS011;36669;51.428;21.162;2022-07-17T07:07:16;1.23;;;1.00;;
44885;SDS011;36669;51.428;21.162;2022-07-17T07:09:43;4.43;;;1.73;;
44885;SDS011;36669;51.428;21.162;2022-07-17T07:12:10;4.22;;;1.15;;
44885;SDS011;36669;51.428;21.162;2022-07-17T07:14:38;3.97;;;1.17;;
44885;SDS011;36669;51.428;21.162;2022-07-17T07:17:05;6.07;;;1.35;;
44885;SDS011;36669;51.428;21.162;2022-07-17T07:19:32;6.53;;;1.50;;
44885;SDS011;36669;51.428;21.162;2022-07-17T07:21:59;5.57;;;1.40;;
44885;SDS011;36669;51.428;21.162;2022-07-17T07:24:26;4.95;;;1.40;;
44885;SDS011;36669;51.428;21.162;2022-07-17T07:26:54;5.03;;;1.30;;
44885;SDS011;36669;51.428;21.162;2022-07-17T07:29:20;6.22;;;1.40;;
44885;SDS011;36669;51.428;21.162;2022-07-17T07:31:47;3.85;;;1.67;;
44885;SDS011;36669;51.428;21.162;2022-07-17T07:34:15;4.13;;;1.30;;
44885;SDS011;36669;51.428;21.162;2022-07-17T07:36:43;6.53;;;1.25;;
44885;SDS011;36669;51.428;21.162;2022-07-17T07:39:10;3.78;;;0.93;;
44885;SDS011;36669;51.428;21.162;2022-07-17T07:41:36;2.42;;;0.50;;
44885;SDS011;36669;51.428;21.162;2022-07-17T07:44:03;2.65;;;1.17;;
44885;SDS011;36669;51.428;21.162;2022-07-17T07:46:31;2.03;;;1.20;;
44885;SDS011;36669;51.428;21.162;2022-07-17T07:48:58;4.82;;;1.02;;
44885;SDS011;36669;51.428;21.162;2022-07-17T07:51:25;7.22;;;1.00;;
44885;SDS011;36669;51.428;21.162;2022-07-17T07:53:52;3.70;;;1.10;;
44885;SDS011;36669;51.428;21.162;2022-07-17T07:56:19;3.00;;;1.17;;
44885;SDS011;36669;51.428;21.162;2022-07-17T07:58:46;1.70;;;0.55;;
44885;SDS011;36669;51.428;21.162;2022-07-17T08:01:12;8.40;;;1.30;;
44885;SDS011;36669;51.428;21.162;2022-07-17T08:03:39;3.60;;;1.10;;
44885;SDS011;36669;51.428;21.162;2022-07-17T08:06:06;6.45;;;1.20;;
44885;SDS011;36669;51.428;21.162;2022-07-17T08:08:34;1.92;;;0.90;;
44885;SDS011;36669;51.428;21.162;2022-07-17T08:11:01;6.55;;;1.60;;
44885;SDS011;36669;51.428;21.162;2022-07-17T08:13:28;7.15;;;1.30;;
44885;SDS011;36669;51.428;21.162;2022-07-17T08:15:54;5.32;;;1.30;;
44885;SDS011;36669;51.428;21.162;2022-07-17T08:18:20;5.97;;;1.42;;
44885;SDS011;36669;51.428;21.162;2022-07-17T08:20:46;3.95;;;1.35;;
44885;SDS011;36669;51.428;21.162;2022-07-17T08:23:15;1.38;;;0.93;;
44885;SDS011;36669;51.428;21.162;2022-07-17T08:25:42;5.05;;;1.27;;
44885;SDS011;36669;51.428;21.162;2022-07-17T08:28:08;5.55;;;1.75;;
44885;SDS011;36669;51.428;21.162;2022-07-17T08:30:35;1.20;;;0.80;;
44885;SDS011;36669;51.428;21.162;2022-07-17T08:33:06;2.78;;;1.15;;
44885;SDS011;36669;51.428;21.162;2022-07-17T08:35:35;2.25;;;1.02;;
44885;SDS011;36669;51.428;21.162;2022-07-17T08:38:04;2.38;;;1.00;;
44885;SDS011;36669;51.428;21.162;2022-07-17T08:40:32;5.18;;;1.30;;
44885;SDS011;36669;51.428;21.162;2022-07-17T08:43:02;8.73;;;1.20;;
44885;SDS011;36669;51.428;21.162;2022-07-17T08:45:30;3.75;;;1.52;;
44885;SDS011;36669;51.428;21.162;2022-07-17T08:47:57;2.22;;;1.27;;
44885;SDS011;36669;51.428;21.162;2022-07-17T08:50:25;2.33;;;1.10;;
44885;SDS011;36669;51.428;21.162;2022-07-17T08:52:54;2.95;;;0.85;;
44885;SDS011;36669;51.428;21.162;2022-07-17T08:55:20;2.88;;;1.02;;
44885;SDS011;36669;51.428;21.162;2022-07-17T08:57:47;3.17;;;1.35;;
44885;SDS011;36669;51.428;21.162;2022-07-17T09:00:15;3.28;;;0.77;;
44885;SDS011;36669;51.428;21.162;2022-07-17T09:03:02;2.42;;;0.93;;
44885;SDS011;36669;51.428;21.162;2022-07-17T09:05:33;3.00;;;0.73;;
44885;SDS011;36669;51.428;21.162;2022-07-17T09:08:20;10.73;;;1.40;;
44885;SDS011;36669;51.428;21.162;2022-07-17T09:10:49;4.10;;;1.30;;
44885;SDS011;36669;51.428;21.162;2022-07-17T09:13:27;2.35;;;1.17;;
44885;SDS011;36669;51.428;21.162;2022-07-17T09:16:14;7.47;;;1.55;;
44885;SDS011;36669;51.428;21.162;2022-07-17T09:18:46;3.28;;;1.08;;
44885;SDS011;36669;51.428;21.162;2022-07-17T09:21:18;3.53;;;1.10;;
44885;SDS011;36669;51.428;21.162;2022-07-17T09:24:01;0.65;;;0.45;;
44885;SDS011;36669;51.428;21.162;2022-07-17T09:26:29;1.88;;;1.00;;
44885;SDS011;36669;51.428;21.162;2022-07-17T09:28:57;2.88;;;0.90;;
44885;SDS011;36669;51.428;21.162;2022-07-17T09:31:26;1.77;;;1.00;;
44885;SDS011;36669;51.428;21.162;2022-07-17T09:33:56;3.35;;;0.80;;
44885;SDS011;36669;51.428;21.162;2022-07-17T09:36:25;1.85;;;0.70;;
44885;SDS011;36669;51.428;21.162;2022-07-17T09:38:56;2.53;;;0.80;;
44885;SDS011;36669;51.428;21.162;2022-07-17T09:41:27;2.28;;;0.80;;
44885;SDS011;36669;51.428;21.162;2022-07-17T09:43:54;1.45;;;0.40;;
44885;SDS011;36669;51.428;21.162;2022-07-17T09:46:23;2.42;;;0.93;;
44885;SDS011;36669;51.428;21.162;2022-07-17T09:49:00;2.85;;;1.23;;
44885;SDS011;36669;51.428;21.162;2022-07-17T09:51:46;2.70;;;0.95;;
44885;SDS011;36669;51.428;21.162;2022-07-17T09:54:14;4.70;;;0.70;;
44885;SDS011;36669;51.428;21.162;2022-07-17T09:56:50;2.78;;;0.85;;
44885;SDS011;36669;51.428;21.162;2022-07-17T09:59:23;1.35;;;0.68;;
44885;SDS011;36669;51.428;21.162;2022-07-17T10:02:03;1.58;;;0.55;;
44885;SDS011;36669;51.428;21.162;2022-07-17T10:04:29;2.70;;;1.05;;
44885;SDS011;36669;51.428;21.162;2022-07-17T10:06:56;0.85;;;0.60;;
44885;SDS011;36669;51.428;21.162;2022-07-17T10:09:28;1.48;;;0.80;;
44885;SDS011;36669;51.428;21.162;2022-07-17T10:12:07;2.58;;;1.13;;
44885;SDS011;36669;51.428;21.162;2022-07-17T10:14:47;1.30;;;0.90;;
44885;SDS011;36669;51.428;21.162;2022-07-17T10:17:20;5.60;;;1.00;;
44885;SDS011;36669;51.428;21.162;2022-07-17T10:19:48;4.35;;;1.05;;
44885;SDS011;36669;51.428;21.162;2022-07-17T10:22:23;1.63;;;0.70;;
44885;SDS011;36669;51.428;21.162;2022-07-17T10:24:55;2.25;;;0.70;;
44885;SDS011;36669;51.428;21.162;2022-07-17T10:27:29;2.35;;;0.55;;
44885;SDS011;36669;51.428;21.162;2022-07-17T10:30:04;3.75;;;1.10;;
44885;SDS011;36669;51.428;21.162;2022-07-17T10:32:32;1.45;;;1.02;;
44885;SDS011;36669;51.428;21.162;2022-07-17T10:35:09;2.15;;;0.80;;
44885;SDS011;36669;51.428;21.162;2022-07-17T10:37:40;7.50;;;2.30;;
44885;SDS011;36669;51.428;21.162;2022-07-17T10:40:15;2.65;;;0.68;;
44885;SDS011;36669;51.428;21.162;2022-07-17T10:42:54;3.13;;;1.10;;
44885;SDS011;36669;51.428;21.162;2022-07-17T10:45:32;2.83;;;1.00;;
44885;SDS011;36669;51.428;21.162;2022-07-17T10:50:46;4.13;;;1.10;;
44885;SDS011;36669;51.428;21.162;2022-07-17T10:53:24;1.80;;;0.90;;
44885;SDS011;36669;51.428;21.162;2022-07-17T10:55:53;2.63;;;1.10;;
44885;SDS011;36669;51.428;21.162;2022-07-17T10:58:37;1.00;;;0.40;;
44885;SDS011;36669;51.428;21.162;2022-07-17T11:01:18;3.72;;;0.63;;
44885;SDS011;36669;51.428;21.162;2022-07-17T11:03:56;1.90;;;0.85;;
44885;SDS011;36669;51.428;21.162;2022-07-17T11:06:31;2.72;;;1.95;;
44885;SDS011;36669;51.428;21.162;2022-07-17T11:09:10;2.67;;;0.43;;
44885;SDS011;36669;51.428;21.162;2022-07-17T11:11:41;0.82;;;0.38;;
44885;SDS011;36669;51.428;21.162;2022-07-17T11:14:20;2.90;;;0.50;;
44885;SDS011;36669;51.428;21.162;2022-07-17T11:19:34;1.23;;;0.65;;
44885;SDS011;36669;51.428;21.162;2022-07-17T11:22:03;1.30;;;0.57;;
44885;SDS011;36669;51.428;21.162;2022-07-17T11:24:46;1.08;;;0.90;;
44885;SDS011;36669;51.428;21.162;2022-07-17T11:27:24;2.92;;;0.90;;
44885;SDS011;36669;51.428;21.162;2022-07-17T11:29:53;1.17;;;0.98;;
44885;SDS011;36669;51.428;21.162;2022-07-17T11:32:23;1.50;;;0.85;;
44885;SDS011;36669;51.428;21.162;2022-07-17T11:34:57;3.78;;;1.10;;
44885;SDS011;36669;51.428;21.162;2022-07-17T11:37:27;4.63;;;1.10;;
44885;SDS011;36669;51.428;21.162;2022-07-17T11:40:05;1.63;;;1.00;;
44885;SDS011;36669;51.428;21.162;2022-07-17T11:42:32;2.65;;;1.00;;
44885;SDS011;36669;51.428;21.162;2022-07-17T11:45:00;2.65;;;1.00;;
44885;SDS011;36669;51.428;21.162;2022-07-17T11:47:27;3.60;;;0.80;;
44885;SDS011;36669;51.428;21.162;2022-07-17T11:50:10;1.20;;;0.80;;
44885;SDS011;36669;51.428;21.162;2022-07-17T11:52:44;1.52;;;0.98;;
44885;SDS011;36669;51.428;21.162;2022-07-17T11:55:14;1.92;;;1.00;;
44885;SDS011;36669;51.428;21.162;2022-07-17T11:57:46;2.55;;;0.90;;
44885;SDS011;36669;51.428;21.162;2022-07-17T12:00:18;2.25;;;1.00;;
44885;SDS011;36669;51.428;21.162;2022-07-17T12:02:46;1.23;;;0.90;;
44885;SDS011;36669;51.428;21.162;2022-07-17T12:05:28;1.92;;;1.08;;
44885;SDS011;36669;51.428;21.162;2022-07-17T12:07:56;1.80;;;0.70;;
44885;SDS011;36669;51.428;21.162;2022-07-17T12:10:24;3.42;;;1.60;;
44885;SDS011;36669;51.428;21.162;2022-07-17T12:12:52;1.55;;;1.00;;
44885;SDS011;36669;51.428;21.162;2022-07-17T12:18:28;1.17;;;0.70;;
44885;SDS011;36669;51.428;21.162;2022-07-17T12:20:56;2.35;;;1.02;;
44885;SDS011;36669;51.428;21.162;2022-07-17T12:23:37;2.22;;;0.95;;
44885;SDS011;36669;51.428;21.162;2022-07-17T12:26:10;1.38;;;0.95;;
44885;SDS011;36669;51.428;21.162;2022-07-17T12:28:52;2.60;;;1.00;;
44885;SDS011;36669;51.428;21.162;2022-07-17T12:31:20;2.80;;;1.05;;
44885;SDS011;36669;51.428;21.162;2022-07-17T12:33:48;1.52;;;0.98;;
44885;SDS011;36669;51.428;21.162;2022-07-17T12:36:17;3.88;;;1.20;;
44885;SDS011;36669;51.428;21.162;2022-07-17T12:38:45;2.22;;;0.90;;
44885;SDS011;36669;51.428;21.162;2022-07-17T12:41:12;8.38;;;1.10;;
44885;SDS011;36669;51.428;21.162;2022-07-17T12:43:40;2.88;;;1.05;;
44885;SDS011;36669;51.428;21.162;2022-07-17T12:46:08;1.60;;;0.80;;
44885;SDS011;36669;51.428;21.162;2022-07-17T12:48:37;1.35;;;0.90;;
44885;SDS011;36669;51.428;21.162;2022-07-17T12:51:04;2.45;;;1.00;;
44885;SDS011;36669;51.428;21.162;2022-07-17T12:53:31;2.33;;;0.88;;
44885;SDS011;36669;51.428;21.162;2022-07-17T12:55:59;3.92;;;1.05;;
44885;SDS011;36669;51.428;21.162;2022-07-17T12:58:30;2.05;;;0.75;;
44885;SDS011;36669;51.428;21.162;2022-07-17T13:00:58;4.97;;;0.80;;
44885;SDS011;36669;51.428;21.162;2022-07-17T13:03:25;1.83;;;0.70;;
44885;SDS011;36669;51.428;21.162;2022-07-17T13:05:53;2.70;;;1.00;;
44885;SDS011;36669;51.428;21.162;2022-07-17T13:08:21;1.63;;;0.70;;
44885;SDS011;36669;51.428;21.162;2022-07-17T13:10:49;4.03;;;0.82;;
44885;SDS011;36669;51.428;21.162;2022-07-17T13:13:16;3.55;;;1.00;;
44885;SDS011;36669;51.428;21.162;2022-07-17T13:15:43;2.20;;;0.88;;
44885;SDS011;36669;51.428;21.162;2022-07-17T13:18:10;2.53;;;1.00;;
44885;SDS011;36669;51.428;21.162;2022-07-17T13:20:36;3.15;;;0.70;;
44885;SDS011;36669;51.428;21.162;2022-07-17T13:23:03;1.58;;;0.70;;
44885;SDS011;36669;51.428;21.162;2022-07-17T13:25:31;2.08;;;0.63;;
44885;SDS011;36669;51.428;21.162;2022-07-17T13:27:58;2.00;;;0.80;;
44885;SDS011;36669;51.428;21.162;2022-07-17T13:30:24;2.63;;;1.08;;
44885;SDS011;36669;51.428;21.162;2022-07-17T13:32:53;2.28;;;0.80;;
44885;SDS011;36669;51.428;21.162;2022-07-17T13:35:21;4.80;;;0.65;;
44885;SDS011;36669;51.428;21.162;2022-07-17T13:37:47;1.83;;;0.68;;
44885;SDS011;36669;51.428;21.162;2022-07-17T13:40:15;2.13;;;0.28;;
44885;SDS011;36669;51.428;21.162;2022-07-17T13:42:43;1.70;;;0.63;;
44885;SDS011;36669;51.428;21.162;2022-07-17T13:45:11;2.05;;;0.50;;
44885;SDS011;36669;51.428;21.162;2022-07-17T13:47:38;2.50;;;1.00;;
44885;SDS011;36669;51.428;21.162;2022-07-17T13:50:04;2.42;;;1.10;;
44885;SDS011;36669;51.428;21.162;2022-07-17T13:52:32;4.88;;;0.80;;
44885;SDS011;36669;51.428;21.162;2022-07-17T13:54:59;3.40;;;0.60;;
44885;SDS011;36669;51.428;21.162;2022-07-17T13:57:27;3.72;;;0.82;;
44885;SDS011;36669;51.428;21.162;2022-07-17T13:59:55;1.48;;;0.60;;
44885;SDS011;36669;51.428;21.162;2022-07-17T14:02:20;4.00;;;0.90;;
44885;SDS011;36669;51.428;21.162;2022-07-17T14:04:47;3.20;;;0.63;;
44885;SDS011;36669;51.428;21.162;2022-07-17T14:07:12;1.02;;;0.70;;
44885;SDS011;36669;51.428;21.162;2022-07-17T14:09:40;2.58;;;0.60;;
44885;SDS011;36669;51.428;21.162;2022-07-17T14:12:06;1.42;;;0.57;;
44885;SDS011;36669;51.428;21.162;2022-07-17T14:14:35;1.58;;;0.55;;
44885;SDS011;36669;51.428;21.162;2022-07-17T14:17:01;7.03;;;1.00;;
44885;SDS011;36669;51.428;21.162;2022-07-17T14:19:28;4.13;;;0.98;;
44885;SDS011;36669;51.428;21.162;2022-07-17T14:21:55;1.85;;;0.70;;
44885;SDS011;36669;51.428;21.162;2022-07-17T14:24:22;2.25;;;0.63;;
44885;SDS011;36669;51.428;21.162;2022-07-17T14:26:52;1.95;;;0.90;;
44885;SDS011;36669;51.428;21.162;2022-07-17T14:29:18;2.17;;;0.70;;
44885;SDS011;36669;51.428;21.162;2022-07-17T14:31:45;1.83;;;0.70;;
44885;SDS011;36669;51.428;21.162;2022-07-17T14:34:12;2.05;;;0.90;;
44885;SDS011;36669;51.428;21.162;2022-07-17T14:36:39;3.00;;;1.08;;
44885;SDS011;36669;51.428;21.162;2022-07-17T14:39:06;2.38;;;0.85;;
44885;SDS011;36669;51.428;21.162;2022-07-17T14:41:34;1.00;;;0.70;;
44885;SDS011;36669;51.428;21.162;2022-07-17T14:44:01;1.80;;;0.60;;
44885;SDS011;36669;51.428;21.162;2022-07-17T14:46:28;1.08;;;0.30;;
44885;SDS011;36669;51.428;21.162;2022-07-17T14:48:55;2.05;;;0.75;;
44885;SDS011;36669;51.428;21.162;2022-07-17T14:51:23;1.80;;;0.70;;